createdAt,value
2022-10-31T00:01:16.480Z,76.80
2022-10-31T00:03:43.843Z,77.00
2022-10-31T00:06:11.846Z,77.00
2022-10-31T00:08:39.382Z,77.00
2022-10-31T00:11:10.935Z,77.00
2022-10-31T00:13:38.386Z,76.90
2022-10-31T00:16:06.391Z,76.80
2022-10-31T00:18:33.850Z,76.80
2022-10-31T00:21:04.779Z,76.70
2022-10-31T00:23:32.244Z,76.80
2022-10-31T00:26:03.706Z,76.70
2022-10-31T00:28:32.860Z,76.70
2022-10-31T00:31:06.114Z,76.70
2022-10-31T00:33:37.582Z,77.10
2022-10-31T00:36:06.898Z,77.10
2022-10-31T00:38:34.258Z,77.10
2022-10-31T00:41:01.649Z,77.00
2022-10-31T00:43:29.030Z,76.90
2022-10-31T00:45:56.514Z,76.90
2022-10-31T00:48:25.580Z,76.90
2022-10-31T00:50:54.129Z,76.90
2022-10-31T00:53:21.658Z,77.00
2022-10-31T00:55:49.561Z,77.00
2022-10-31T00:58:17.481Z,77.40
2022-10-31T01:00:48.041Z,77.40
2022-10-31T01:03:18.281Z,77.20
2022-10-31T01:05:46.006Z,77.10
2022-10-31T01:08:13.660Z,77.00
2022-10-31T01:10:41.065Z,76.90
2022-10-31T01:13:09.695Z,76.90
2022-10-31T01:15:37.246Z,77.10
2022-10-31T01:18:07.269Z,77.10
2022-10-31T01:20:34.852Z,77.10
2022-10-31T01:23:02.539Z,77.30
2022-10-31T01:25:29.916Z,77.30
2022-10-31T01:27:57.543Z,77.20
2022-10-31T01:30:26.318Z,77.30
2022-10-31T01:32:54.719Z,77.50
2022-10-31T01:35:22.099Z,77.60
2022-10-31T01:37:49.698Z,77.60
2022-10-31T01:40:16.921Z,77.60
2022-10-31T01:42:44.293Z,77.50
2022-10-31T01:45:11.875Z,77.60
2022-10-31T01:47:45.486Z,77.60
2022-10-31T01:50:32.263Z,77.60
2022-10-31T01:53:04.066Z,77.70
2022-10-31T01:55:35.215Z,77.70
2022-10-31T01:58:07.967Z,77.80
2022-10-31T02:00:35.438Z,77.90
2022-10-31T02:03:03.539Z,77.90
2022-10-31T02:05:31.823Z,77.70
2022-10-31T02:08:19.189Z,77.70
2022-10-31T02:10:50.993Z,77.70
2022-10-31T02:13:19.444Z,77.70
2022-10-31T02:15:54.913Z,77.60
2022-10-31T02:18:23.978Z,77.60
2022-10-31T02:21:03.738Z,77.60
2022-10-31T02:24:00.165Z,77.70
2022-10-31T02:26:54.389Z,77.60
2022-10-31T02:29:40.383Z,77.60
2022-10-31T02:32:25.642Z,77.60
2022-10-31T02:34:59.176Z,77.50
2022-10-31T02:37:43.640Z,77.50
2022-10-31T02:40:24.070Z,77.70
2022-10-31T02:46:09.291Z,77.60
2022-10-31T02:48:40.153Z,77.80
2022-10-31T02:51:09.217Z,77.90
2022-10-31T02:53:38.400Z,77.90
2022-10-31T02:56:20.289Z,77.80
2022-10-31T02:58:50.038Z,78.20
2022-10-31T03:01:26.343Z,78.20
2022-10-31T03:04:03.388Z,78.40
2022-10-31T03:06:36.189Z,78.60
2022-10-31T03:09:22.666Z,78.50
2022-10-31T03:12:22.257Z,78.60
2022-10-31T03:14:59.176Z,78.50
2022-10-31T03:17:36.767Z,78.30
2022-10-31T03:20:09.868Z,78.20
2022-10-31T03:22:41.560Z,78.20
2022-10-31T03:25:10.531Z,78.10
2022-10-31T03:27:40.664Z,78.00
2022-10-31T03:30:08.777Z,77.80
2022-10-31T03:32:59.951Z,77.70
2022-10-31T03:35:31.239Z,78.40
2022-10-31T03:38:05.541Z,77.70
2022-10-31T03:40:37.763Z,77.80
2022-10-31T03:43:09.806Z,77.80
2022-10-31T03:45:46.252Z,77.70
2022-10-31T03:48:16.010Z,77.60
2022-10-31T03:50:54.020Z,77.60
2022-10-31T03:53:31.950Z,77.60
2022-10-31T03:56:15.897Z,77.60
2022-10-31T03:59:00.465Z,77.60
2022-10-31T04:01:32.568Z,77.60
2022-10-31T04:04:01.033Z,77.60
2022-10-31T04:06:29.113Z,77.50
2022-10-31T04:09:01.414Z,77.60
2022-10-31T04:11:36.163Z,77.70
2022-10-31T04:14:36.243Z,77.60
2022-10-31T04:17:06.181Z,77.60
2022-10-31T04:19:37.865Z,77.70
2022-10-31T04:22:05.541Z,77.50
2022-10-31T04:24:32.979Z,77.50
2022-10-31T04:27:00.394Z,77.60
2022-10-31T04:29:29.618Z,77.60
2022-10-31T04:31:56.987Z,77.50
2022-10-31T04:34:24.405Z,77.60
2022-10-31T04:36:52.065Z,77.60
2022-10-31T04:39:22.787Z,77.50
2022-10-31T04:42:20.760Z,77.50
2022-10-31T04:44:48.093Z,77.50
2022-10-31T04:47:16.201Z,77.50
2022-10-31T04:49:43.967Z,77.60
2022-10-31T04:52:12.947Z,77.50
2022-10-31T04:54:41.041Z,77.50
2022-10-31T04:57:43.978Z,77.70
2022-10-31T05:00:14.523Z,77.70
2022-10-31T05:02:49.125Z,77.70
2022-10-31T05:05:18.683Z,77.90
2022-10-31T05:07:47.979Z,78.20
2022-10-31T05:10:21.285Z,77.70
2022-10-31T05:12:56.014Z,77.60
2022-10-31T05:15:43.662Z,77.60
2022-10-31T05:18:29.774Z,77.50
2022-10-31T05:21:16.078Z,77.50
2022-10-31T05:23:48.516Z,77.50
2022-10-31T05:26:18.112Z,77.60
2022-10-31T05:28:46.036Z,77.50
2022-10-31T05:31:13.410Z,77.50
2022-10-31T05:33:42.817Z,77.60
2022-10-31T05:36:13.247Z,77.60
2022-10-31T05:39:00.930Z,77.70
2022-10-31T05:41:42.763Z,77.70
2022-10-31T05:44:16.257Z,77.90
2022-10-31T05:46:58.959Z,78.30
2022-10-31T05:49:35.199Z,78.40
2022-10-31T05:52:28.463Z,78.50
2022-10-31T05:55:02.834Z,78.40
2022-10-31T05:57:34.893Z,78.20
2022-10-31T06:00:02.442Z,78.30
2022-10-31T06:02:35.714Z,78.30
2022-10-31T06:05:21.644Z,78.30
2022-10-31T06:07:49.474Z,78.30
2022-10-31T06:10:17.631Z,78.30
2022-10-31T06:12:46.772Z,78.20
2022-10-31T06:15:31.905Z,78.00
2022-10-31T06:18:05.746Z,77.90
2022-10-31T06:20:44.833Z,78.00
2022-10-31T06:23:12.607Z,78.10
2022-10-31T06:25:41.984Z,78.10
2022-10-31T06:28:10.138Z,78.20
2022-10-31T06:30:50.887Z,78.50
2022-10-31T06:33:18.818Z,78.40
2022-10-31T06:35:56.607Z,78.40
2022-10-31T06:38:26.262Z,78.50
2022-10-31T06:40:54.753Z,78.60
2022-10-31T06:43:24.205Z,78.80
2022-10-31T06:46:04.285Z,79.10
2022-10-31T06:48:36.547Z,79.40
2022-10-31T06:51:36.505Z,79.70
2022-10-31T06:54:04.199Z,80.00
2022-10-31T06:56:32.310Z,80.30
2022-10-31T06:59:00.790Z,81.10
2022-10-31T07:02:00.477Z,80.40
2022-10-31T07:04:28.099Z,80.40
2022-10-31T07:06:55.657Z,80.30
2022-10-31T07:09:23.251Z,80.30
2022-10-31T07:11:53.980Z,80.00
2022-10-31T07:14:21.618Z,79.20
2022-10-31T07:16:51.209Z,77.90
2022-10-31T07:19:23.949Z,77.00
2022-10-31T07:21:51.645Z,76.90
2022-10-31T07:24:19.426Z,76.30
2022-10-31T07:27:05.895Z,76.00
2022-10-31T07:29:33.373Z,75.40
2022-10-31T07:32:01.373Z,74.90
2022-10-31T07:34:30.727Z,74.30
2022-10-31T07:37:33.429Z,73.70
2022-10-31T07:40:00.938Z,71.30
2022-10-31T07:42:28.754Z,71.40
2022-10-31T07:44:57.722Z,70.60
2022-10-31T07:48:00.704Z,69.80
2022-10-31T07:50:47.454Z,68.60
2022-10-31T07:53:33.641Z,67.40
2022-10-31T07:56:11.814Z,66.40
2022-10-31T07:58:39.390Z,65.40
2022-10-31T08:01:07.116Z,63.10
2022-10-31T08:03:43.485Z,61.50
2022-10-31T08:06:10.902Z,60.80
2022-10-31T08:08:56.732Z,60.70
2022-10-31T08:11:24.316Z,59.40
2022-10-31T08:13:51.710Z,59.40
2022-10-31T08:16:20.637Z,59.00
2022-10-31T08:18:56.527Z,57.80
2022-10-31T08:21:24.661Z,57.70
2022-10-31T08:23:52.098Z,57.80
2022-10-31T08:26:22.730Z,57.80
2022-10-31T08:28:52.327Z,58.40
2022-10-31T08:31:22.582Z,59.00
2022-10-31T08:33:50.073Z,59.60
2022-10-31T08:36:21.642Z,60.30
2022-10-31T08:38:51.510Z,61.40
2022-10-31T08:41:18.973Z,62.20
2022-10-31T08:43:46.939Z,62.90
2022-10-31T08:46:17.058Z,63.70
2022-10-31T08:48:45.458Z,64.60
2022-10-31T08:51:13.268Z,65.00
2022-10-31T08:53:40.665Z,65.80
2022-10-31T08:56:31.402Z,66.30
2022-10-31T08:59:00.643Z,66.80
2022-10-31T09:01:48.312Z,67.30
2022-10-31T09:04:15.847Z,67.50
2022-10-31T09:07:08.037Z,68.20
2022-10-31T09:09:31.143Z,68.50
2022-10-31T09:11:59.858Z,68.90
2022-10-31T09:15:01.695Z,69.10
2022-10-31T09:17:49.897Z,69.20
2022-10-31T09:20:41.005Z,69.40
2022-10-31T09:23:16.010Z,69.50
2022-10-31T09:25:50.025Z,69.60
2022-10-31T09:28:37.846Z,69.70
2022-10-31T09:31:13.603Z,69.90
2022-10-31T09:33:55.637Z,70.00
2022-10-31T09:36:40.885Z,70.10
2022-10-31T09:39:13.850Z,70.20
2022-10-31T09:41:56.097Z,70.00
2022-10-31T09:44:31.830Z,70.10
2022-10-31T09:47:11.517Z,69.90
2022-10-31T09:50:20.622Z,70.00
2022-10-31T09:53:19.551Z,70.20
2022-10-31T09:55:50.625Z,70.00
2022-10-31T09:58:24.265Z,70.00
2022-10-31T10:00:52.722Z,70.20
2022-10-31T10:03:36.796Z,70.00
2022-10-31T10:06:28.282Z,70.00
2022-10-31T10:09:27.643Z,69.70
2022-10-31T10:12:42.979Z,69.30
2022-10-31T10:15:40.761Z,69.20
2022-10-31T10:18:38.335Z,69.70
2022-10-31T10:21:38.884Z,69.50
2022-10-31T10:24:23.155Z,69.30
2022-10-31T10:27:11.418Z,68.80
2022-10-31T10:29:45.720Z,68.70
2022-10-31T10:32:29.261Z,68.60
2022-10-31T10:35:02.872Z,68.40
2022-10-31T10:37:37.889Z,68.60
2022-10-31T10:40:20.712Z,68.30
2022-10-31T10:43:24.034Z,68.20
2022-10-31T10:47:01.081Z,68.20
2022-10-31T10:49:37.852Z,68.10
2022-10-31T10:55:11.613Z,67.40
2022-10-31T10:57:56.452Z,67.00
2022-10-31T11:00:26.900Z,67.00
2022-10-31T11:02:54.750Z,66.80
2022-10-31T11:05:38.127Z,66.70
2022-10-31T11:08:06.805Z,66.60
2022-10-31T11:10:34.654Z,66.50
2022-10-31T11:13:16.790Z,66.60
2022-10-31T11:16:13.211Z,66.80
2022-10-31T11:18:45.741Z,66.80
2022-10-31T11:21:29.962Z,66.60
2022-10-31T11:24:10.792Z,66.20
2022-10-31T11:26:40.218Z,66.20
2022-10-31T11:29:20.942Z,66.20
2022-10-31T11:31:51.194Z,65.70
2022-10-31T11:34:32.722Z,65.60
2022-10-31T11:37:24.560Z,65.10
2022-10-31T11:39:56.854Z,64.90
2022-10-31T11:42:28.493Z,64.50
2022-10-31T11:44:56.939Z,64.50
2022-10-31T11:47:33.450Z,64.80
2022-10-31T11:50:10.626Z,64.20
2022-10-31T11:52:40.767Z,64.10
2022-10-31T11:55:11.440Z,63.90
2022-10-31T11:57:46.698Z,63.30
2022-10-31T12:00:30.905Z,63.00
2022-10-31T12:03:24.137Z,63.20
2022-10-31T12:05:57.349Z,63.10
2022-10-31T12:08:29.789Z,63.30
2022-10-31T12:11:07.018Z,63.20
2022-10-31T12:13:36.171Z,62.80
2022-10-31T12:16:21.016Z,62.60
2022-10-31T12:18:59.655Z,61.90
2022-10-31T12:21:52.421Z,62.30
2022-10-31T12:24:46.109Z,62.20
2022-10-31T12:27:56.069Z,62.50
2022-10-31T12:30:41.579Z,62.30
2022-10-31T12:33:14.985Z,62.50
2022-10-31T12:35:51.599Z,62.60
2022-10-31T12:38:38.125Z,62.70
2022-10-31T12:41:34.625Z,62.50
2022-10-31T12:44:35.550Z,62.60
2022-10-31T12:47:32.157Z,62.00
2022-10-31T12:50:23.521Z,61.90
2022-10-31T12:53:13.887Z,61.60
2022-10-31T12:55:56.391Z,61.80
2022-10-31T12:58:30.328Z,61.60
2022-10-31T13:01:18.566Z,61.70
2022-10-31T13:04:05.039Z,61.60
2022-10-31T13:06:45.006Z,61.90
2022-10-31T13:09:18.015Z,61.30
2022-10-31T13:11:54.789Z,61.40
2022-10-31T13:14:45.174Z,61.40
2022-10-31T13:17:23.862Z,61.30
2022-10-31T13:19:56.933Z,61.90
2022-10-31T13:22:30.316Z,62.30
2022-10-31T13:25:09.952Z,61.70
2022-10-31T13:27:50.322Z,61.80
2022-10-31T13:30:23.471Z,61.60
2022-10-31T13:33:10.227Z,61.40
2022-10-31T13:35:55.624Z,61.20
2022-10-31T13:38:44.585Z,61.10
2022-10-31T13:41:11.968Z,61.30
2022-10-31T13:44:00.490Z,61.40
2022-10-31T13:46:34.101Z,61.10
2022-10-31T13:49:02.062Z,61.10
2022-10-31T13:51:36.085Z,61.60
2022-10-31T13:54:22.429Z,61.60
2022-10-31T13:56:51.758Z,61.70
2022-10-31T13:59:24.942Z,61.60
2022-10-31T14:01:57.102Z,61.70
2022-10-31T14:04:27.702Z,62.00
2022-10-31T14:07:11.356Z,62.20
2022-10-31T14:09:40.219Z,62.40
2022-10-31T14:12:29.206Z,62.70
2022-10-31T14:15:03.066Z,63.00
2022-10-31T14:17:46.699Z,63.00
2022-10-31T14:20:16.160Z,63.30
2022-10-31T14:22:44.023Z,63.30
2022-10-31T14:25:35.241Z,63.40
2022-10-31T14:28:19.334Z,63.40
2022-10-31T14:30:58.481Z,63.50
2022-10-31T14:33:29.434Z,63.30
2022-10-31T14:36:19.991Z,63.50
2022-10-31T14:38:50.298Z,63.70
2022-10-31T14:42:05.879Z,63.70
2022-10-31T14:44:39.614Z,63.90
2022-10-31T14:47:37.510Z,64.00
2022-10-31T14:50:26.834Z,64.30
2022-10-31T14:52:58.512Z,64.30
2022-10-31T14:55:27.133Z,64.30
2022-10-31T14:58:02.627Z,64.40
2022-10-31T15:00:32.394Z,64.70
2022-10-31T15:03:44.434Z,64.80
2022-10-31T15:06:23.095Z,65.10
2022-10-31T15:08:55.808Z,65.30
2022-10-31T15:11:26.818Z,65.80
2022-10-31T15:13:58.030Z,65.90
2022-10-31T15:16:28.728Z,66.20
2022-10-31T15:18:58.248Z,66.40
2022-10-31T15:21:29.248Z,66.60
2022-10-31T15:23:59.963Z,67.00
2022-10-31T15:26:36.015Z,67.00
2022-10-31T15:29:06.288Z,67.30
2022-10-31T15:31:33.880Z,67.50
2022-10-31T15:34:17.261Z,67.50
2022-10-31T15:36:49.898Z,68.00
2022-10-31T15:39:18.447Z,68.00
2022-10-31T15:41:54.685Z,67.90
2022-10-31T15:44:27.702Z,68.00
2022-10-31T15:47:01.244Z,68.00
2022-10-31T15:49:47.630Z,68.60
2022-10-31T15:52:15.063Z,69.20
2022-10-31T15:54:48.410Z,68.70
2022-10-31T15:57:16.265Z,69.20
2022-10-31T15:59:48.359Z,69.20
2022-10-31T16:02:20.616Z,69.50
2022-10-31T16:05:01.881Z,69.60
2022-10-31T16:07:30.467Z,70.20
2022-10-31T16:10:00.762Z,70.30
2022-10-31T16:12:37.110Z,70.50
2022-10-31T16:15:07.761Z,70.80
2022-10-31T16:17:35.353Z,70.90
2022-10-31T16:20:06.166Z,71.30
2022-10-31T16:22:39.620Z,71.40
2022-10-31T16:25:23.382Z,72.00
2022-10-31T16:27:55.382Z,72.10
2022-10-31T16:30:35.706Z,71.60
2022-10-31T16:33:03.600Z,72.00
2022-10-31T16:35:35.741Z,71.70
2022-10-31T16:38:04.307Z,71.80
2022-10-31T16:40:32.789Z,71.80
2022-10-31T16:43:01.481Z,72.00
2022-10-31T16:45:32.079Z,72.20
2022-10-31T16:48:10.482Z,72.40
2022-10-31T16:50:38.889Z,72.60
2022-10-31T16:53:13.833Z,72.20
2022-10-31T16:55:45.985Z,72.40
2022-10-31T16:58:19.761Z,72.60
2022-10-31T17:00:47.690Z,73.10
2022-10-31T17:03:15.234Z,72.90
2022-10-31T17:05:42.561Z,73.30
2022-10-31T17:08:10.151Z,73.40
2022-10-31T17:10:38.809Z,73.60
2022-10-31T17:13:12.277Z,73.90
2022-10-31T17:15:44.330Z,73.90
2022-10-31T17:18:16.224Z,74.20
2022-10-31T17:20:44.421Z,74.30
2022-10-31T17:23:13.639Z,74.00
2022-10-31T17:25:42.029Z,74.30
2022-10-31T17:28:13.589Z,74.20
2022-10-31T17:30:42.325Z,74.30
2022-10-31T17:33:15.221Z,74.20
2022-10-31T17:35:44.696Z,74.40
2022-10-31T17:38:13.013Z,74.50
2022-10-31T17:40:44.212Z,74.70
2022-10-31T17:43:12.132Z,74.50
2022-10-31T17:45:41.385Z,74.50
2022-10-31T17:48:11.393Z,74.70
2022-10-31T17:50:38.939Z,74.70
2022-10-31T17:53:06.596Z,74.70
2022-10-31T17:55:36.165Z,74.70
2022-10-31T17:58:05.259Z,74.70
2022-10-31T18:00:33.486Z,75.00
2022-10-31T18:03:04.385Z,75.00
2022-10-31T18:05:33.711Z,75.30
2022-10-31T18:08:04.357Z,75.20
2022-10-31T18:10:31.982Z,75.20
2022-10-31T18:13:00.205Z,75.30
2022-10-31T18:15:28.110Z,75.20
2022-10-31T18:17:55.597Z,75.40
2022-10-31T18:20:23.343Z,75.50
2022-10-31T18:22:50.786Z,75.60
2022-10-31T18:25:18.545Z,75.70
2022-10-31T18:27:46.060Z,75.70
2022-10-31T18:30:13.378Z,75.70
2022-10-31T18:32:40.938Z,75.80
2022-10-31T18:35:08.402Z,75.80
2022-10-31T18:37:35.675Z,75.80
2022-10-31T18:40:03.721Z,75.90
2022-10-31T18:42:30.946Z,76.10
2022-10-31T18:45:00.287Z,76.00
2022-10-31T18:47:34.198Z,76.00
2022-10-31T18:50:01.394Z,75.80
2022-10-31T18:52:28.571Z,75.70
2022-10-31T18:54:55.913Z,75.50
2022-10-31T18:57:23.081Z,75.30
2022-10-31T18:59:50.254Z,75.30
2022-10-31T19:02:17.990Z,75.40
2022-10-31T19:04:45.407Z,75.40
2022-10-31T19:07:12.599Z,75.20
2022-10-31T19:09:39.932Z,75.20
2022-10-31T19:12:07.364Z,75.20
2022-10-31T19:14:34.716Z,75.30
2022-10-31T19:17:02.595Z,75.30
2022-10-31T19:19:29.955Z,75.40
2022-10-31T19:21:58.543Z,75.60
2022-10-31T19:24:26.229Z,75.70
2022-10-31T19:26:53.775Z,75.60
2022-10-31T19:29:21.390Z,75.60
2022-10-31T19:31:48.925Z,75.40
2022-10-31T19:34:16.253Z,75.40
2022-10-31T19:36:44.195Z,75.50
2022-10-31T19:39:12.131Z,75.60
2022-10-31T19:41:39.966Z,75.80
2022-10-31T19:44:11.834Z,75.90
2022-10-31T19:46:59.997Z,76.10
2022-10-31T19:49:27.306Z,76.30
2022-10-31T19:51:55.137Z,76.20
2022-10-31T19:54:22.824Z,76.40
2022-10-31T19:56:50.181Z,76.30
2022-10-31T19:59:17.612Z,76.30
2022-10-31T20:01:45.217Z,76.30
2022-10-31T20:04:12.906Z,76.20
2022-10-31T20:06:41.526Z,76.20
2022-10-31T20:09:13.700Z,76.10
2022-10-31T20:11:43.528Z,76.20
2022-10-31T20:14:13.745Z,76.40
2022-10-31T20:16:41.831Z,76.40
2022-10-31T20:19:09.410Z,76.40
2022-10-31T20:21:39.523Z,76.30
2022-10-31T20:24:09.167Z,76.40
2022-10-31T20:26:40.606Z,76.40
2022-10-31T20:29:12.163Z,76.50
2022-10-31T20:31:40.063Z,76.50
2022-10-31T20:34:07.642Z,76.50
2022-10-31T20:36:36.762Z,76.40
2022-10-31T20:39:04.638Z,76.30
2022-10-31T20:41:32.296Z,76.20
2022-10-31T20:43:59.644Z,76.20
2022-10-31T20:46:27.505Z,76.40
2022-10-31T20:48:55.278Z,76.70
2022-10-31T20:51:25.670Z,76.80
2022-10-31T20:53:55.012Z,77.20
2022-10-31T20:56:24.635Z,76.90
2022-10-31T20:58:54.417Z,76.60
2022-10-31T21:01:28.590Z,76.70
2022-10-31T21:03:56.895Z,76.70
2022-10-31T21:06:24.513Z,76.60
2022-10-31T21:08:52.520Z,76.80
2022-10-31T21:11:22.217Z,76.90
2022-10-31T21:13:50.716Z,77.10
2022-10-31T21:16:23.546Z,77.00
2022-10-31T21:18:52.913Z,77.00
2022-10-31T21:21:32.875Z,76.90
2022-10-31T21:24:03.457Z,76.80
2022-10-31T21:26:34.041Z,76.90
2022-10-31T21:29:02.171Z,77.20
2022-10-31T21:31:30.157Z,77.40
2022-10-31T21:33:58.197Z,77.40
2022-10-31T21:36:26.172Z,77.30
2022-10-31T21:38:54.451Z,77.20
2022-10-31T21:41:23.273Z,77.20
2022-10-31T21:43:54.200Z,77.10
2022-10-31T21:46:30.398Z,77.30
2022-10-31T21:48:58.449Z,77.40
2022-10-31T21:51:35.042Z,77.10
2022-10-31T21:54:22.018Z,77.20
2022-10-31T21:56:49.629Z,77.10
2022-10-31T21:59:16.852Z,77.00
2022-10-31T22:01:44.489Z,77.10
2022-10-31T22:04:11.921Z,77.10
2022-10-31T22:06:39.587Z,77.30
2022-10-31T22:09:08.742Z,77.30
2022-10-31T22:11:36.501Z,77.30
2022-10-31T22:14:04.570Z,77.40
2022-10-31T22:16:35.190Z,77.40
2022-10-31T22:19:05.571Z,77.40
2022-10-31T22:21:41.208Z,77.40
2022-10-31T22:24:09.408Z,77.50
2022-10-31T22:26:37.744Z,77.40
2022-10-31T22:29:11.449Z,77.60
2022-10-31T22:31:41.097Z,77.70
2022-10-31T22:34:08.981Z,77.70
2022-10-31T22:36:37.775Z,77.70
2022-10-31T22:39:06.334Z,77.70
2022-10-31T22:41:35.773Z,77.70
2022-10-31T22:44:04.806Z,77.70
2022-10-31T22:46:35.419Z,77.70
2022-10-31T22:49:10.411Z,77.80
2022-10-31T22:51:39.519Z,77.80
2022-10-31T22:54:14.335Z,78.10
2022-10-31T22:56:41.881Z,78.10
2022-10-31T22:59:15.435Z,78.30
2022-10-31T23:01:45.626Z,77.90
2022-10-31T23:04:14.579Z,77.70
2022-10-31T23:06:42.525Z,77.80
2022-10-31T23:09:14.744Z,78.10
2022-10-31T23:11:42.173Z,78.50
2022-10-31T23:14:14.051Z,78.70
2022-10-31T23:16:45.469Z,78.80
2022-10-31T23:19:17.842Z,79.20
2022-10-31T23:21:55.116Z,79.80
2022-10-31T23:24:36.601Z,80.10
2022-10-31T23:27:13.921Z,80.00
2022-10-31T23:29:45.526Z,80.00
2022-10-31T23:32:18.540Z,79.80
2022-10-31T23:34:46.810Z,79.90
2022-10-31T23:37:14.972Z,80.00
2022-10-31T23:39:42.307Z,80.20
2022-10-31T23:42:10.249Z,80.30
2022-10-31T23:44:37.915Z,80.40
2022-10-31T23:47:06.013Z,80.30
2022-10-31T23:49:33.387Z,80.20
2022-10-31T23:52:01.276Z,80.40
2022-10-31T23:54:28.830Z,80.30
2022-10-31T23:56:57.946Z,80.10
2022-10-31T23:59:26.150Z,80.00
